Time;durP1;ratioP1;P1;durP2;ratioP2;P2;SDS_P1;SDS_P2;PMS_P1;PMS_P2;Temp;Humidity;BMP_temperature;BMP_pressure;BME280_temperature;BME280_humidity;BME280_pressure;Samples;Min_cycle;Max_cycle;Signal;HPM_P1;HPM_P2
2022/10/07 01:28:54;;;;;;;22.10;16.87;;;7.80;99.90;;;;;;4747312;29;21236;-84
2022/10/07 01:54:43;;;;;;;23.47;16.77;;;7.00;99.90;;;;;;4696465;29;20236;-85
2022/10/07 02:24:34;;;;;;;25.73;16.30;;;6.30;99.90;;;;;;4629195;30;20691;-83
2022/10/07 02:40:08;;;;;;;22.77;18.07;;;6.10;99.90;;;;;;4520096;30;20357;-85
2022/10/07 03:50:47;;;;;;;32.23;21.57;;;4.80;99.90;;;;;;4494204;30;20560;-85
2022/10/07 04:11:32;;;;;;;32.23;22.47;;;4.60;99.90;;;;;;4470360;31;20300;-85
2022/10/07 04:41:43;;;;;;;35.23;24.07;;;4.30;99.90;;;;;;4496684;30;20666;-87
2022/10/07 05:37:43;;;;;;;32.50;24.37;;;4.80;99.90;;;;;;4577763;29;20203;-77
2022/10/07 06:13:18;;;;;;;33.10;25.53;;;6.40;99.90;;;;;;4578075;29;20308;-80
2022/10/07 06:48:14;;;;;;;25.67;20.70;;;7.90;99.90;;;;;;4382701;30;20776;-77
2022/10/07 07:19:20;;;;;;;21.17;15.77;;;9.50;99.90;;;;;;4460892;30;20722;-77
2022/10/07 07:49:42;;;;;;;18.00;14.83;;;10.60;97.90;;;;;;4581050;29;20268;-78
2022/10/07 08:30:22;;;;;;;17.20;12.80;;;12.10;93.70;;;;;;4554465;29;20233;-76
2022/10/07 09:45:51;;;;;;;5.70;3.50;;;15.10;83.80;;;;;;4409022;30;20880;-76
2022/10/07 10:16:34;;;;;;;4.87;2.73;;;15.90;80.00;;;;;;4458628;29;20776;-78
2022/10/07 11:27:48;;;;;;;3.50;2.27;;;16.70;77.80;;;;;;4777547;29;20595;-87
2022/10/07 11:53:03;;;;;;;4.17;2.70;;;17.00;78.10;;;;;;4785302;29;20200;-83
2022/10/07 12:33:05;;;;;;;4.53;2.60;;;17.40;77.90;;;;;;4765327;29;20217;-85
2022/10/07 12:53:44;;;;;;;7.73;2.93;;;17.60;78.00;;;;;;4668777;30;20441;-86
2022/10/07 13:49:37;;;;;;;3.57;2.97;;;18.10;77.30;;;;;;5879887;23;20224;31
2022/10/07 14:20:04;;;;;;;5.13;3.60;;;17.10;80.70;;;;;;4692104;29;20238;-87
2022/10/07 14:50:23;;;;;;;4.50;4.10;;;16.50;83.40;;;;;;4572514;30;20235;-86
2022/10/07 15:15:53;;;;;;;7.53;4.80;;;16.00;85.20;;;;;;4727890;30;20223;-84
2022/10/07 15:36:17;;;;;;;5.50;5.00;;;15.60;87.20;;;;;;4692930;30;20541;-87
2022/10/07 16:06:50;;;;;;;8.37;7.00;;;13.40;94.90;;;;;;4751651;29;20312;-87
2022/10/07 16:11:09;;;;;;;7.67;6.63;;;13.00;96.40;;;;;;4743821;29;20214;-87
2022/10/07 16:32:09;;;;;;;10.50;9.40;;;12.10;99.90;;;;;;5212837;23;20296;-86
2022/10/07 17:07:05;;;;;;;11.27;10.17;;;11.70;99.90;;;;;;4537632;31;20504;-84
2022/10/07 17:32:20;;;;;;;12.50;10.70;;;11.90;99.90;;;;;;4582689;30;20411;-86
2022/10/07 17:47:48;;;;;;;13.67;12.10;;;12.30;99.90;;;;;;4756778;29;20210;-86
2022/10/07 18:17:56;;;;;;;16.70;13.20;;;11.70;99.90;;;;;;4781672;29;20343;-86
2022/10/07 19:09:17;;;;;;;23.50;17.10;;;10.20;99.90;;;;;;4604064;30;20230;-88
2022/10/07 19:29:36;;;;;;;29.70;23.80;;;9.90;99.90;;;;;;4741414;29;20220;-87
2022/10/07 20:04:29;;;;;;;30.60;23.00;;;9.60;99.90;;;;;;4589860;30;20569;-88
2022/10/07 20:35:19;;;;;;;28.80;21.37;;;9.60;99.90;;;;;;5750870;23;20727;-87
2022/10/07 20:54:56;;;;;;;29.23;20.53;;;9.40;99.90;;;;;;4827005;29;20210;-86
2022/10/07 21:00:31;;;;;;;26.97;21.57;;;9.50;99.90;;;;;;5729786;23;20935;-87
2022/10/07 21:04:52;;;;;;;26.70;21.03;;;9.50;99.90;;;;;;4841749;29;20410;-89
2022/10/07 21:30:16;;;;;;;26.87;20.77;;;9.00;99.90;;;;;;4792670;29;20219;-87
2022/10/07 21:51:15;;;;;;;32.87;24.07;;;8.80;99.90;;;;;;4717486;29;20251;-88
2022/10/07 22:11:20;;;;;;;32.73;24.40;;;8.90;99.90;;;;;;4633137;30;20422;-87
2022/10/07 22:36:41;;;;;;;34.47;25.47;;;8.70;99.90;;;;;;4803086;29;20227;-88
2022/10/07 23:12:04;;;;;;;32.87;24.13;;;8.30;99.90;;;;;;4692295;29;20226;-85
2022/10/07 23:42:12;;;;;;;32.53;25.03;;;8.10;99.90;;;;;;4663867;30;20419;-85
